sensor_id;sensor_type;location;lat;lon;timestamp;temperature;humidity
5027;DHT22;2532;52.480;13.354;2023-05-10T04:00:54;12.70;65.00
5027;DHT22;2532;52.480;13.354;2023-05-10T04:03:21;12.70;65.20
5027;DHT22;2532;52.480;13.354;2023-05-10T04:05:49;12.80;65.50
5027;DHT22;2532;52.480;13.354;2023-05-10T04:08:16;12.80;65.30
5027;DHT22;2532;52.480;13.354;2023-05-10T04:10:42;12.70;65.10
5027;DHT22;2532;52.480;13.354;2023-05-10T04:13:09;12.80;65.50
5027;DHT22;2532;52.480;13.354;2023-05-10T04:15:36;12.80;65.00
5027;DHT22;2532;52.480;13.354;2023-05-10T04:18:05;12.80;65.10
5027;DHT22;2532;52.480;13.354;2023-05-10T04:20:32;12.80;65.10
5027;DHT22;2532;52.480;13.354;2023-05-10T04:22:59;12.80;65.10
5027;DHT22;2532;52.480;13.354;2023-05-10T04:25:27;12.80;65.20
5027;DHT22;2532;52.480;13.354;2023-05-10T04:27:54;12.90;65.20
5027;DHT22;2532;52.480;13.354;2023-05-10T04:30:21;12.90;65.30
5027;DHT22;2532;52.480;13.354;2023-05-10T04:32:48;12.90;65.50
5027;DHT22;2532;52.480;13.354;2023-05-10T04:35:16;12.90;65.50
5027;DHT22;2532;52.480;13.354;2023-05-10T04:37:43;12.90;65.50
5027;DHT22;2532;52.480;13.354;2023-05-10T04:40:10;13.00;65.60
5027;DHT22;2532;52.480;13.354;2023-05-10T04:42:39;13.00;65.40
5027;DHT22;2532;52.480;13.354;2023-05-10T04:45:07;13.00;65.40
5027;DHT22;2532;52.480;13.354;2023-05-10T04:47:35;13.00;65.40
5027;DHT22;2532;52.480;13.354;2023-05-10T04:50:02;13.00;65.30
5027;DHT22;2532;52.480;13.354;2023-05-10T04:52:31;13.10;65.40
5027;DHT22;2532;52.480;13.354;2023-05-10T04:54:58;13.10;65.20
5027;DHT22;2532;52.480;13.354;2023-05-10T04:57:25;13.20;65.10
5027;DHT22;2532;52.480;13.354;2023-05-10T04:59:52;13.30;65.20
5027;DHT22;2532;52.480;13.354;2023-05-10T05:02:18;13.30;65.30
5027;DHT22;2532;52.480;13.354;2023-05-10T05:04:45;13.40;65.20
5027;DHT22;2532;52.480;13.354;2023-05-10T05:07:12;13.50;65.20
5027;DHT22;2532;52.480;13.354;2023-05-10T05:09:41;13.50;65.10
5027;DHT22;2532;52.480;13.354;2023-05-10T05:12:08;13.50;64.90
5027;DHT22;2532;52.480;13.354;2023-05-10T05:14:39;13.60;64.70
5027;DHT22;2532;52.480;13.354;2023-05-10T05:17:06;13.70;64.60
5027;DHT22;2532;52.480;13.354;2023-05-10T05:19:33;13.80;64.30
5027;DHT22;2532;52.480;13.354;2023-05-10T05:22:01;13.80;65.00
5027;DHT22;2532;52.480;13.354;2023-05-10T05:24:28;13.90;64.00
5027;DHT22;2532;52.480;13.354;2023-05-10T05:26:56;13.90;63.90
5027;DHT22;2532;52.480;13.354;2023-05-10T05:29:23;14.00;63.60
5027;DHT22;2532;52.480;13.354;2023-05-10T05:31:50;14.10;63.50
5027;DHT22;2532;52.480;13.354;2023-05-10T05:34:17;14.20;63.40
5027;DHT22;2532;52.480;13.354;2023-05-10T05:36:46;14.30;63.50
5027;DHT22;2532;52.480;13.354;2023-05-10T05:39:13;14.30;63.00
5027;DHT22;2532;52.480;13.354;2023-05-10T05:41:39;14.40;63.00
5027;DHT22;2532;52.480;13.354;2023-05-10T05:44:11;14.50;62.80
5027;DHT22;2532;52.480;13.354;2023-05-10T05:46:40;14.60;63.50
5027;DHT22;2532;52.480;13.354;2023-05-10T05:49:07;14.60;62.60
5027;DHT22;2532;52.480;13.354;2023-05-10T05:51:35;14.70;62.80
5027;DHT22;2532;52.480;13.354;2023-05-10T05:54:02;14.80;62.90
5027;DHT22;2532;52.480;13.354;2023-05-10T05:56:29;14.80;62.70
5027;DHT22;2532;52.480;13.354;2023-05-10T05:58:56;14.90;62.70
5027;DHT22;2532;52.480;13.354;2023-05-10T06:01:25;15.00;62.40
5027;DHT22;2532;52.480;13.354;2023-05-10T06:03:52;15.10;62.50
5027;DHT22;2532;52.480;13.354;2023-05-10T06:06:18;15.10;62.40
5027;DHT22;2532;52.480;13.354;2023-05-10T06:08:45;15.20;62.20
5027;DHT22;2532;52.480;13.354;2023-05-10T06:11:12;15.20;62.00
5027;DHT22;2532;52.480;13.354;2023-05-10T06:13:39;15.30;62.20
5027;DHT22;2532;52.480;13.354;2023-05-10T06:16:07;15.30;62.30
5027;DHT22;2532;52.480;13.354;2023-05-10T06:18:36;15.40;62.30
5027;DHT22;2532;52.480;13.354;2023-05-10T06:21:03;15.40;62.20
5027;DHT22;2532;52.480;13.354;2023-05-10T06:23:30;15.50;61.90
5027;DHT22;2532;52.480;13.354;2023-05-10T06:25:57;15.50;62.60
5027;DHT22;2532;52.480;13.354;2023-05-10T06:28:24;15.70;62.30
5027;DHT22;2532;52.480;13.354;2023-05-10T06:30:50;15.70;61.80
5027;DHT22;2532;52.480;13.354;2023-05-10T06:33:17;15.80;62.00
5027;DHT22;2532;52.480;13.354;2023-05-10T06:35:46;15.90;61.70
5027;DHT22;2532;52.480;13.354;2023-05-10T06:38:13;15.90;61.80
5027;DHT22;2532;52.480;13.354;2023-05-10T06:40:41;16.00;61.90
5027;DHT22;2532;52.480;13.354;2023-05-10T06:43:09;16.10;62.00
5027;DHT22;2532;52.480;13.354;2023-05-10T06:45:36;16.20;61.20
5027;DHT22;2532;52.480;13.354;2023-05-10T06:48:03;16.30;61.00
5027;DHT22;2532;52.480;13.354;2023-05-10T06:50:30;16.40;61.10
5027;DHT22;2532;52.480;13.354;2023-05-10T06:52:58;16.50;60.50
5027;DHT22;2532;52.480;13.354;2023-05-10T06:55:25;16.60;60.40
5027;DHT22;2532;52.480;13.354;2023-05-10T06:57:52;16.60;60.60
5027;DHT22;2532;52.480;13.354;2023-05-10T07:00:19;16.70;60.30
5027;DHT22;2532;52.480;13.354;2023-05-10T07:02:47;16.80;60.00
5027;DHT22;2532;52.480;13.354;2023-05-10T07:05:14;16.90;59.80
5027;DHT22;2532;52.480;13.354;2023-05-10T07:07:41;16.90;59.80
5027;DHT22;2532;52.480;13.354;2023-05-10T07:10:10;17.00;59.30
5027;DHT22;2532;52.480;13.354;2023-05-10T07:12:37;17.00;59.40
5027;DHT22;2532;52.480;13.354;2023-05-10T07:15:05;17.00;59.40
5027;DHT22;2532;52.480;13.354;2023-05-10T07:17:32;17.10;59.30
5027;DHT22;2532;52.480;13.354;2023-05-10T07:19:59;17.10;59.50
5027;DHT22;2532;52.480;13.354;2023-05-10T07:22:27;17.20;59.80
5027;DHT22;2532;52.480;13.354;2023-05-10T07:24:54;17.20;59.70
5027;DHT22;2532;52.480;13.354;2023-05-10T07:27:22;17.30;59.20
5027;DHT22;2532;52.480;13.354;2023-05-10T07:29:50;17.40;59.40
5027;DHT22;2532;52.480;13.354;2023-05-10T07:32:17;17.40;59.40
5027;DHT22;2532;52.480;13.354;2023-05-10T07:34:43;17.50;58.90
5027;DHT22;2532;52.480;13.354;2023-05-10T07:37:10;17.60;59.00
5027;DHT22;2532;52.480;13.354;2023-05-10T07:39:37;17.60;59.90
5027;DHT22;2532;52.480;13.354;2023-05-10T07:42:04;17.80;59.60
5027;DHT22;2532;52.480;13.354;2023-05-10T07:44:32;17.90;59.60
5027;DHT22;2532;52.480;13.354;2023-05-10T07:46:59;18.00;59.00
5027;DHT22;2532;52.480;13.354;2023-05-10T07:49:26;18.10;58.30
5027;DHT22;2532;52.480;13.354;2023-05-10T07:51:53;18.10;58.30
5027;DHT22;2532;52.480;13.354;2023-05-10T07:54:20;18.20;58.50
5027;DHT22;2532;52.480;13.354;2023-05-10T07:56:47;18.30;58.10
5027;DHT22;2532;52.480;13.354;2023-05-10T07:59:16;18.40;58.10
5027;DHT22;2532;52.480;13.354;2023-05-10T08:01:45;18.40;57.90
5027;DHT22;2532;52.480;13.354;2023-05-10T08:04:11;18.50;57.90
5027;DHT22;2532;52.480;13.354;2023-05-10T08:06:39;18.50;57.80
5027;DHT22;2532;52.480;13.354;2023-05-10T08:09:06;18.50;57.40
5027;DHT22;2532;52.480;13.354;2023-05-10T08:11:33;18.60;57.70
5027;DHT22;2532;52.480;13.354;2023-05-10T08:14:00;18.70;57.60
5027;DHT22;2532;52.480;13.354;2023-05-10T08:16:27;18.70;57.40
5027;DHT22;2532;52.480;13.354;2023-05-10T08:18:56;18.80;57.60
5027;DHT22;2532;52.480;13.354;2023-05-10T08:21:23;18.90;57.10
5027;DHT22;2532;52.480;13.354;2023-05-10T08:23:50;19.00;57.40
5027;DHT22;2532;52.480;13.354;2023-05-10T08:26:16;19.10;57.50
5027;DHT22;2532;52.480;13.354;2023-05-10T08:28:43;19.20;57.10
5027;DHT22;2532;52.480;13.354;2023-05-10T08:31:10;19.30;56.10
5027;DHT22;2532;52.480;13.354;2023-05-10T08:33:37;19.30;56.40
5027;DHT22;2532;52.480;13.354;2023-05-10T08:36:06;19.30;56.70
5027;DHT22;2532;52.480;13.354;2023-05-10T08:38:33;19.40;57.10
5027;DHT22;2532;52.480;13.354;2023-05-10T08:41:02;19.50;57.00
5027;DHT22;2532;52.480;13.354;2023-05-10T08:43:30;19.60;56.40
5027;DHT22;2532;52.480;13.354;2023-05-10T08:46:00;19.60;56.60
5027;DHT22;2532;52.480;13.354;2023-05-10T08:48:29;19.70;56.80
5027;DHT22;2532;52.480;13.354;2023-05-10T08:50:58;19.80;56.80
5027;DHT22;2532;52.480;13.354;2023-05-10T08:53:29;19.90;56.70
5027;DHT22;2532;52.480;13.354;2023-05-10T08:55:58;20.00;55.70
5027;DHT22;2532;52.480;13.354;2023-05-10T08:58:25;20.10;56.00
5027;DHT22;2532;52.480;13.354;2023-05-10T09:00:52;20.20;56.50
5027;DHT22;2532;52.480;13.354;2023-05-10T09:03:20;20.20;56.00
5027;DHT22;2532;52.480;13.354;2023-05-10T09:05:47;20.40;56.20
5027;DHT22;2532;52.480;13.354;2023-05-10T09:08:15;20.40;55.50
5027;DHT22;2532;52.480;13.354;2023-05-10T09:10:44;20.40;55.80
5027;DHT22;2532;52.480;13.354;2023-05-10T09:13:14;20.40;55.40
5027;DHT22;2532;52.480;13.354;2023-05-10T09:15:43;20.30;55.50
5027;DHT22;2532;52.480;13.354;2023-05-10T09:18:10;20.40;55.60
5027;DHT22;2532;52.480;13.354;2023-05-10T09:20:37;20.50;55.10
5027;DHT22;2532;52.480;13.354;2023-05-10T09:23:04;20.50;55.40
5027;DHT22;2532;52.480;13.354;2023-05-10T09:25:31;20.50;55.30
5027;DHT22;2532;52.480;13.354;2023-05-10T09:28:01;20.60;55.20
5027;DHT22;2532;52.480;13.354;2023-05-10T09:30:29;20.60;55.10
5027;DHT22;2532;52.480;13.354;2023-05-10T09:32:57;20.70;55.70
5027;DHT22;2532;52.480;13.354;2023-05-10T09:35:26;20.80;55.40
5027;DHT22;2532;52.480;13.354;2023-05-10T09:37:55;20.90;55.20
5027;DHT22;2532;52.480;13.354;2023-05-10T09:40:24;20.90;54.70
5027;DHT22;2532;52.480;13.354;2023-05-10T09:42:52;21.00;54.90
5027;DHT22;2532;52.480;13.354;2023-05-10T09:45:22;21.10;55.00
5027;DHT22;2532;52.480;13.354;2023-05-10T09:47:49;21.10;54.90
5027;DHT22;2532;52.480;13.354;2023-05-10T09:50:16;21.20;54.80
5027;DHT22;2532;52.480;13.354;2023-05-10T09:52:48;21.30;54.60
5027;DHT22;2532;52.480;13.354;2023-05-10T09:55:18;21.40;54.70
5027;DHT22;2532;52.480;13.354;2023-05-10T09:57:46;21.40;54.60
5027;DHT22;2532;52.480;13.354;2023-05-10T10:00:17;21.50;54.40
5027;DHT22;2532;52.480;13.354;2023-05-10T10:02:47;21.60;53.50
5027;DHT22;2532;52.480;13.354;2023-05-10T10:05:15;21.70;53.30
5027;DHT22;2532;52.480;13.354;2023-05-10T10:07:42;21.80;53.80
5027;DHT22;2532;52.480;13.354;2023-05-10T10:10:09;21.90;54.10
5027;DHT22;2532;52.480;13.354;2023-05-10T10:12:39;21.90;53.80
5027;DHT22;2532;52.480;13.354;2023-05-10T10:15:10;21.90;53.60
5027;DHT22;2532;52.480;13.354;2023-05-10T10:17:37;22.10;53.40
5027;DHT22;2532;52.480;13.354;2023-05-10T10:20:08;22.00;53.50
5027;DHT22;2532;52.480;13.354;2023-05-10T10:22:36;22.10;53.60
5027;DHT22;2532;52.480;13.354;2023-05-10T10:25:04;22.10;53.30
5027;DHT22;2532;52.480;13.354;2023-05-10T10:27:39;22.10;53.50
5027;DHT22;2532;52.480;13.354;2023-05-10T10:30:18;22.10;53.10
5027;DHT22;2532;52.480;13.354;2023-05-10T10:33:06;22.20;53.40
5027;DHT22;2532;52.480;13.354;2023-05-10T10:35:38;22.30;53.20
5027;DHT22;2532;52.480;13.354;2023-05-10T10:38:08;22.40;52.80
5027;DHT22;2532;52.480;13.354;2023-05-10T10:40:35;22.50;52.30
5027;DHT22;2532;52.480;13.354;2023-05-10T10:43:22;22.60;52.30
5027;DHT22;2532;52.480;13.354;2023-05-10T10:46:14;22.50;51.00
5027;DHT22;2532;52.480;13.354;2023-05-10T10:48:47;22.50;51.70
5027;DHT22;2532;52.480;13.354;2023-05-10T10:51:16;22.50;51.40
5027;DHT22;2532;52.480;13.354;2023-05-10T10:53:43;22.50;51.70
5027;DHT22;2532;52.480;13.354;2023-05-10T10:56:11;22.50;51.40
5027;DHT22;2532;52.480;13.354;2023-05-10T10:58:41;22.60;51.10
5027;DHT22;2532;52.480;13.354;2023-05-10T11:01:12;22.70;51.90
5027;DHT22;2532;52.480;13.354;2023-05-10T11:03:40;22.80;51.00
5027;DHT22;2532;52.480;13.354;2023-05-10T11:06:07;22.90;50.80
5027;DHT22;2532;52.480;13.354;2023-05-10T11:08:41;22.90;51.10
5027;DHT22;2532;52.480;13.354;2023-05-10T11:11:10;22.90;51.10
5027;DHT22;2532;52.480;13.354;2023-05-10T11:13:41;22.90;50.70
5027;DHT22;2532;52.480;13.354;2023-05-10T11:16:18;23.00;51.00
5027;DHT22;2532;52.480;13.354;2023-05-10T11:19:01;23.00;50.70
5027;DHT22;2532;52.480;13.354;2023-05-10T11:21:29;23.10;50.90
5027;DHT22;2532;52.480;13.354;2023-05-10T11:23:58;23.10;50.80
5027;DHT22;2532;52.480;13.354;2023-05-10T11:26:30;23.10;50.40
5027;DHT22;2532;52.480;13.354;2023-05-10T11:28:57;23.10;50.50
5027;DHT22;2532;52.480;13.354;2023-05-10T11:31:28;23.10;50.20
5027;DHT22;2532;52.480;13.354;2023-05-10T11:33:57;23.10;50.50
5027;DHT22;2532;52.480;13.354;2023-05-10T11:36:25;23.20;50.00
5027;DHT22;2532;52.480;13.354;2023-05-10T11:38:53;23.20;49.50
5027;DHT22;2532;52.480;13.354;2023-05-10T11:41:23;23.30;49.60
5027;DHT22;2532;52.480;13.354;2023-05-10T11:43:51;23.40;49.40
5027;DHT22;2532;52.480;13.354;2023-05-10T11:46:20;23.40;49.30
5027;DHT22;2532;52.480;13.354;2023-05-10T11:48:48;23.50;48.90
5027;DHT22;2532;52.480;13.354;2023-05-10T11:51:20;23.50;48.60
5027;DHT22;2532;52.480;13.354;2023-05-10T11:53:47;23.50;48.60
5027;DHT22;2532;52.480;13.354;2023-05-10T11:56:14;23.50;48.70
5027;DHT22;2532;52.480;13.354;2023-05-10T11:58:42;23.50;49.10
5027;DHT22;2532;52.480;13.354;2023-05-10T12:01:10;23.60;49.00
5027;DHT22;2532;52.480;13.354;2023-05-10T12:03:37;23.70;49.30
5027;DHT22;2532;52.480;13.354;2023-05-10T12:06:06;23.80;49.60
5027;DHT22;2532;52.480;13.354;2023-05-10T12:08:34;23.90;48.30
5027;DHT22;2532;52.480;13.354;2023-05-10T12:11:05;24.00;47.60
5027;DHT22;2532;52.480;13.354;2023-05-10T12:13:34;24.10;47.40
5027;DHT22;2532;52.480;13.354;2023-05-10T12:16:14;24.10;47.70
5027;DHT22;2532;52.480;13.354;2023-05-10T12:18:41;24.20;48.40
5027;DHT22;2532;52.480;13.354;2023-05-10T12:21:10;24.20;48.60
5027;DHT22;2532;52.480;13.354;2023-05-10T12:23:37;24.20;48.70
5027;DHT22;2532;52.480;13.354;2023-05-10T12:26:05;24.30;48.80
5027;DHT22;2532;52.480;13.354;2023-05-10T12:28:32;24.40;47.70
5027;DHT22;2532;52.480;13.354;2023-05-10T12:31:00;24.50;47.60
5027;DHT22;2532;52.480;13.354;2023-05-10T12:33:35;24.50;47.70
5027;DHT22;2532;52.480;13.354;2023-05-10T12:36:05;24.50;47.30
5027;DHT22;2532;52.480;13.354;2023-05-10T12:38:33;24.50;47.70
5027;DHT22;2532;52.480;13.354;2023-05-10T12:41:02;24.50;47.80
5027;DHT22;2532;52.480;13.354;2023-05-10T12:43:30;24.50;48.10
5027;DHT22;2532;52.480;13.354;2023-05-10T12:45:58;24.60;48.10
5027;DHT22;2532;52.480;13.354;2023-05-10T12:48:25;24.70;48.20
5027;DHT22;2532;52.480;13.354;2023-05-10T12:50:55;24.80;47.70
5027;DHT22;2532;52.480;13.354;2023-05-10T12:53:22;24.80;47.10
5027;DHT22;2532;52.480;13.354;2023-05-10T12:55:49;24.90;47.70
5027;DHT22;2532;52.480;13.354;2023-05-10T12:58:16;25.00;47.60
5027;DHT22;2532;52.480;13.354;2023-05-10T13:00:43;25.00;47.10
5027;DHT22;2532;52.480;13.354;2023-05-10T13:03:10;25.10;46.30
5027;DHT22;2532;52.480;13.354;2023-05-10T13:05:37;25.20;46.10
5027;DHT22;2532;52.480;13.354;2023-05-10T13:08:06;25.40;46.60
5027;DHT22;2532;52.480;13.354;2023-05-10T13:10:33;25.50;46.80
5027;DHT22;2532;52.480;13.354;2023-05-10T13:13:00;25.70;47.00
5027;DHT22;2532;52.480;13.354;2023-05-10T13:15:27;25.90;46.10
5027;DHT22;2532;52.480;13.354;2023-05-10T13:17:54;26.00;44.90
5027;DHT22;2532;52.480;13.354;2023-05-10T13:20:21;26.10;45.50
5027;DHT22;2532;52.480;13.354;2023-05-10T13:22:48;26.10;45.30
5027;DHT22;2532;52.480;13.354;2023-05-10T13:25:17;26.10;45.90
5027;DHT22;2532;52.480;13.354;2023-05-10T13:27:44;26.30;45.60
5027;DHT22;2532;52.480;13.354;2023-05-10T13:30:11;26.40;45.20
5027;DHT22;2532;52.480;13.354;2023-05-10T13:32:38;26.50;45.60
5027;DHT22;2532;52.480;13.354;2023-05-10T13:35:06;26.60;44.20
5027;DHT22;2532;52.480;13.354;2023-05-10T13:37:33;26.60;43.70
5027;DHT22;2532;52.480;13.354;2023-05-10T13:40:03;26.60;42.90
5027;DHT22;2532;52.480;13.354;2023-05-10T13:42:32;26.50;42.90
5027;DHT22;2532;52.480;13.354;2023-05-10T13:45:00;26.40;43.20
5027;DHT22;2532;52.480;13.354;2023-05-10T13:47:27;26.30;43.70
5027;DHT22;2532;52.480;13.354;2023-05-10T13:49:54;26.20;44.00
5027;DHT22;2532;52.480;13.354;2023-05-10T13:52:21;26.20;44.60
5027;DHT22;2532;52.480;13.354;2023-05-10T13:54:48;26.20;44.10
5027;DHT22;2532;52.480;13.354;2023-05-10T13:57:17;26.30;43.40
5027;DHT22;2532;52.480;13.354;2023-05-10T13:59:46;26.40;43.40
5027;DHT22;2532;52.480;13.354;2023-05-10T14:02:13;26.60;43.30
5027;DHT22;2532;52.480;13.354;2023-05-10T14:04:40;26.80;43.80
5027;DHT22;2532;52.480;13.354;2023-05-10T14:07:07;26.80;42.50
5027;DHT22;2532;52.480;13.354;2023-05-10T14:09:34;26.80;42.20
5027;DHT22;2532;52.480;13.354;2023-05-10T14:12:01;26.80;41.40
5027;DHT22;2532;52.480;13.354;2023-05-10T14:14:28;26.80;41.70
5027;DHT22;2532;52.480;13.354;2023-05-10T14:16:57;26.90;42.00
5027;DHT22;2532;52.480;13.354;2023-05-10T14:19:25;27.00;41.70
5027;DHT22;2532;52.480;13.354;2023-05-10T14:21:52;27.10;41.40
5027;DHT22;2532;52.480;13.354;2023-05-10T14:24:19;27.10;40.40
5027;DHT22;2532;52.480;13.354;2023-05-10T14:26:46;27.10;40.80
5027;DHT22;2532;52.480;13.354;2023-05-10T14:29:13;27.10;41.00
5027;DHT22;2532;52.480;13.354;2023-05-10T14:31:40;27.10;41.30
5027;DHT22;2532;52.480;13.354;2023-05-10T14:34:08;27.10;41.30
5027;DHT22;2532;52.480;13.354;2023-05-10T14:36:35;27.10;41.40
5027;DHT22;2532;52.480;13.354;2023-05-10T14:39:02;27.20;41.30
5027;DHT22;2532;52.480;13.354;2023-05-10T14:41:29;27.30;41.00
5027;DHT22;2532;52.480;13.354;2023-05-10T14:43:56;27.30;40.90
5027;DHT22;2532;52.480;13.354;2023-05-10T14:46:23;27.30;41.90
5027;DHT22;2532;52.480;13.354;2023-05-10T14:48:50;27.50;41.90
5027;DHT22;2532;52.480;13.354;2023-05-10T14:51:19;27.70;41.50
5027;DHT22;2532;52.480;13.354;2023-05-10T14:53:47;27.90;40.80
5027;DHT22;2532;52.480;13.354;2023-05-10T14:56:14;27.90;40.60
5027;DHT22;2532;52.480;13.354;2023-05-10T14:58:41;27.70;40.10
5027;DHT22;2532;52.480;13.354;2023-05-10T15:01:08;27.50;40.30
5027;DHT22;2532;52.480;13.354;2023-05-10T15:03:35;27.20;40.60
5027;DHT22;2532;52.480;13.354;2023-05-10T15:06:03;27.20;41.00
5027;DHT22;2532;52.480;13.354;2023-05-10T15:08:32;27.20;41.70
5027;DHT22;2532;52.480;13.354;2023-05-10T15:10:59;27.30;42.10
5027;DHT22;2532;52.480;13.354;2023-05-10T15:13:26;27.50;41.70
5027;DHT22;2532;52.480;13.354;2023-05-10T15:15:53;27.50;41.30
5027;DHT22;2532;52.480;13.354;2023-05-10T15:18:20;27.60;41.10
5027;DHT22;2532;52.480;13.354;2023-05-10T15:20:47;27.60;40.90
5027;DHT22;2532;52.480;13.354;2023-05-10T15:23:14;27.60;41.20
5027;DHT22;2532;52.480;13.354;2023-05-10T15:25:42;27.60;41.50
5027;DHT22;2532;52.480;13.354;2023-05-10T15:28:09;27.50;40.30
5027;DHT22;2532;52.480;13.354;2023-05-10T15:30:36;27.30;41.30
5027;DHT22;2532;52.480;13.354;2023-05-10T15:33:03;27.30;41.10
5027;DHT22;2532;52.480;13.354;2023-05-10T15:35:30;27.10;42.20
5027;DHT22;2532;52.480;13.354;2023-05-10T15:41:21;27.10;41.90
5027;DHT22;2532;52.480;13.354;2023-05-10T15:43:48;27.10;42.50
5027;DHT22;2532;52.480;13.354;2023-05-10T15:46:15;27.20;42.70
5027;DHT22;2532;52.480;13.354;2023-05-10T15:48:42;27.30;42.70
5027;DHT22;2532;52.480;13.354;2023-05-10T15:51:09;27.30;42.20
5027;DHT22;2532;52.480;13.354;2023-05-10T15:53:39;27.40;42.40
5027;DHT22;2532;52.480;13.354;2023-05-10T15:56:06;27.40;41.80
5027;DHT22;2532;52.480;13.354;2023-05-10T15:58:35;27.30;42.40
5027;DHT22;2532;52.480;13.354;2023-05-10T16:01:02;27.20;41.80
5027;DHT22;2532;52.480;13.354;2023-05-10T16:03:30;27.00;41.90
5027;DHT22;2532;52.480;13.354;2023-05-10T16:05:57;26.80;42.20
5027;DHT22;2532;52.480;13.354;2023-05-10T16:08:24;26.50;42.60
5027;DHT22;2532;52.480;13.354;2023-05-10T16:10:51;26.30;42.90
5027;DHT22;2532;52.480;13.354;2023-05-10T16:13:18;26.20;43.20
5027;DHT22;2532;52.480;13.354;2023-05-10T16:15:47;26.10;43.90
5027;DHT22;2532;52.480;13.354;2023-05-10T16:18:14;26.10;44.00
5027;DHT22;2532;52.480;13.354;2023-05-10T16:20:45;26.10;46.30
5027;DHT22;2532;52.480;13.354;2023-05-10T16:23:13;26.10;47.90
5027;DHT22;2532;52.480;13.354;2023-05-10T16:25:40;25.90;48.40
5027;DHT22;2532;52.480;13.354;2023-05-10T16:28:08;25.80;48.20
5027;DHT22;2532;52.480;13.354;2023-05-10T16:30:35;25.70;48.30
5027;DHT22;2532;52.480;13.354;2023-05-10T16:33:04;25.60;48.70
5027;DHT22;2532;52.480;13.354;2023-05-10T16:35:33;25.50;53.50
5027;DHT22;2532;52.480;13.354;2023-05-10T16:38:01;25.60;55.50
5027;DHT22;2532;52.480;13.354;2023-05-10T16:40:33;25.50;56.40
5027;DHT22;2532;52.480;13.354;2023-05-10T16:43:03;25.40;57.20
5027;DHT22;2532;52.480;13.354;2023-05-10T16:45:33;25.40;57.60
5027;DHT22;2532;52.480;13.354;2023-05-10T16:48:00;25.40;58.10
5027;DHT22;2532;52.480;13.354;2023-05-10T16:50:29;25.50;58.30
5027;DHT22;2532;52.480;13.354;2023-05-10T16:52:57;25.70;58.10
5027;DHT22;2532;52.480;13.354;2023-05-10T16:55:24;25.90;57.90
5027;DHT22;2532;52.480;13.354;2023-05-10T16:57:51;26.10;57.80
5027;DHT22;2532;52.480;13.354;2023-05-10T17:00:24;26.00;57.70
5027;DHT22;2532;52.480;13.354;2023-05-10T17:02:51;26.00;57.70
5027;DHT22;2532;52.480;13.354;2023-05-10T17:05:21;26.00;57.70
5027;DHT22;2532;52.480;13.354;2023-05-10T17:07:50;25.90;58.00
5027;DHT22;2532;52.480;13.354;2023-05-10T17:10:17;25.80;58.20
5027;DHT22;2532;52.480;13.354;2023-05-10T17:12:44;25.80;58.80
5027;DHT22;2532;52.480;13.354;2023-05-10T17:15:14;25.80;58.90
5027;DHT22;2532;52.480;13.354;2023-05-10T17:17:43;25.70;59.10
5027;DHT22;2532;52.480;13.354;2023-05-10T17:20:11;25.50;59.70
5027;DHT22;2532;52.480;13.354;2023-05-10T17:22:38;25.30;60.40
5027;DHT22;2532;52.480;13.354;2023-05-10T17:25:08;25.10;60.80
5027;DHT22;2532;52.480;13.354;2023-05-10T17:27:36;25.00;62.00
5027;DHT22;2532;52.480;13.354;2023-05-10T17:30:05;24.80;61.60
5027;DHT22;2532;52.480;13.354;2023-05-10T17:32:32;24.70;62.20
5027;DHT22;2532;52.480;13.354;2023-05-10T17:34:59;24.40;62.90
5027;DHT22;2532;52.480;13.354;2023-05-10T17:37:27;24.20;63.60
5027;DHT22;2532;52.480;13.354;2023-05-10T17:39:58;23.90;64.20
5027;DHT22;2532;52.480;13.354;2023-05-10T17:42:26;23.70;64.90
5027;DHT22;2532;52.480;13.354;2023-05-10T17:44:54;23.50;65.50
5027;DHT22;2532;52.480;13.354;2023-05-10T17:47:24;23.20;66.10
5027;DHT22;2532;52.480;13.354;2023-05-10T17:49:52;23.00;66.90
5027;DHT22;2532;52.480;13.354;2023-05-10T17:52:19;22.80;67.60
5027;DHT22;2532;52.480;13.354;2023-05-10T17:54:46;22.60;68.20
5027;DHT22;2532;52.480;13.354;2023-05-10T17:57:14;22.50;68.80
5027;DHT22;2532;52.480;13.354;2023-05-10T17:59:43;22.40;69.30
5027;DHT22;2532;52.480;13.354;2023-05-10T18:02:10;22.20;70.60
5027;DHT22;2532;52.480;13.354;2023-05-10T18:04:40;22.00;70.30
5027;DHT22;2532;52.480;13.354;2023-05-10T18:07:10;21.90;70.90
5027;DHT22;2532;52.480;13.354;2023-05-10T18:09:41;21.80;71.40
5027;DHT22;2532;52.480;13.354;2023-05-10T18:12:08;21.70;71.80
5027;DHT22;2532;52.480;13.354;2023-05-10T18:14:37;21.60;72.30
5027;DHT22;2532;52.480;13.354;2023-05-10T18:17:06;21.50;72.80
5027;DHT22;2532;52.480;13.354;2023-05-10T18:19:35;21.40;73.40
5027;DHT22;2532;52.480;13.354;2023-05-10T18:22:16;21.30;73.70
5027;DHT22;2532;52.480;13.354;2023-05-10T18:24:55;21.20;74.30
5027;DHT22;2532;52.480;13.354;2023-05-10T18:27:27;21.10;74.90
5027;DHT22;2532;52.480;13.354;2023-05-10T18:29:59;21.00;75.20
5027;DHT22;2532;52.480;13.354;2023-05-10T18:32:28;21.00;75.70
5027;DHT22;2532;52.480;13.354;2023-05-10T18:35:01;20.90;75.90
5027;DHT22;2532;52.480;13.354;2023-05-10T18:37:31;20.90;76.30
5027;DHT22;2532;52.480;13.354;2023-05-10T18:40:01;20.80;76.60
5027;DHT22;2532;52.480;13.354;2023-05-10T18:42:34;20.80;76.90
5027;DHT22;2532;52.480;13.354;2023-05-10T18:45:13;20.80;77.10
5027;DHT22;2532;52.480;13.354;2023-05-10T18:47:42;20.80;77.30
5027;DHT22;2532;52.480;13.354;2023-05-10T18:50:10;20.80;77.50
5027;DHT22;2532;52.480;13.354;2023-05-10T18:52:39;20.80;77.70
5027;DHT22;2532;52.480;13.354;2023-05-10T18:55:10;20.80;78.00
5027;DHT22;2532;52.480;13.354;2023-05-10T18:57:38;20.70;78.20
5027;DHT22;2532;52.480;13.354;2023-05-10T19:00:08;20.70;78.40
5027;DHT22;2532;52.480;13.354;2023-05-10T19:02:37;20.70;78.60
5027;DHT22;2532;52.480;13.354;2023-05-10T19:05:07;20.70;78.90
5027;DHT22;2532;52.480;13.354;2023-05-10T19:07:35;20.70;79.00
5027;DHT22;2532;52.480;13.354;2023-05-10T19:12:34;20.70;79.50
5027;DHT22;2532;52.480;13.354;2023-05-10T19:15:02;20.60;79.70
5027;DHT22;2532;52.480;13.354;2023-05-10T19:17:29;20.60;80.10
5027;DHT22;2532;52.480;13.354;2023-05-10T19:19:56;20.50;80.20
5027;DHT22;2532;52.480;13.354;2023-05-10T19:22:25;20.50;80.50
5027;DHT22;2532;52.480;13.354;2023-05-10T19:24:52;20.50;80.70
5027;DHT22;2532;52.480;13.354;2023-05-10T19:27:19;20.50;80.80
5027;DHT22;2532;52.480;13.354;2023-05-10T19:29:46;20.40;80.90
5027;DHT22;2532;52.480;13.354;2023-05-10T19:32:13;20.40;81.10
5027;DHT22;2532;52.480;13.354;2023-05-10T19:34:40;20.40;81.20
5027;DHT22;2532;52.480;13.354;2023-05-10T19:37:07;20.40;81.30
5027;DHT22;2532;52.480;13.354;2023-05-10T19:39:37;20.40;81.50
5027;DHT22;2532;52.480;13.354;2023-05-10T19:42:04;20.40;81.60
5027;DHT22;2532;52.480;13.354;2023-05-10T19:44:31;20.40;81.40
5027;DHT22;2532;52.480;13.354;2023-05-10T19:46:58;20.30;81.60
5027;DHT22;2532;52.480;13.354;2023-05-10T19:49:25;20.30;81.80
5027;DHT22;2532;52.480;13.354;2023-05-10T19:51:52;20.20;82.00
5027;DHT22;2532;52.480;13.354;2023-05-10T19:54:19;20.20;82.30
5027;DHT22;2532;52.480;13.354;2023-05-10T19:56:48;20.10;82.50